Time;durP1;ratioP1;P1;durP2;ratioP2;P2;SDS_P1;SDS_P2;PMS_P1;PMS_P2;Temp;Humidity;BMP_temperature;BMP_pressure;BME280_temperature;BME280_humidity;BME280_pressure;Samples;Min_cycle;Max_cycle;Signal;HPM_P1;HPM_P2
2021/04/06 00:01:00;;;;;;;69.18;34.92;;;8.10;78.60;;;;;;6245494;23;20071;-69
2021/04/06 00:03:29;;;;;;;61.38;34.80;;;8.00;78.80;;;;;;6243829;23;20001;-71
2021/04/06 00:06:02;;;;;;;65.80;33.70;;;8.00;80.90;;;;;;6245767;23;20003;-72
2021/04/06 00:08:30;;;;;;;62.15;33.33;;;7.90;81.00;;;;;;6244815;23;20413;-70
2021/04/06 00:10:59;;;;;;;65.38;33.88;;;7.80;81.80;;;;;;6247769;23;20000;-70
2021/04/06 00:13:33;;;;;;;76.40;38.83;;;7.80;82.60;;;;;;6247777;23;20008;-70
2021/04/06 00:16:02;;;;;;;69.10;36.78;;;7.80;80.80;;;;;;6247909;23;20501;-70
2021/04/06 00:18:28;;;;;;;71.03;34.83;;;7.70;85.10;;;;;;6246137;23;20000;-70
2021/04/06 00:20:57;;;;;;;67.97;33.97;;;7.60;85.50;;;;;;6247369;23;20321;-69
2021/04/06 00:23:24;;;;;;;64.97;33.53;;;7.50;83.60;;;;;;6245746;23;20016;-70
2021/04/06 00:25:51;;;;;;;63.42;33.47;;;7.50;83.20;;;;;;6246112;23;20011;-71
2021/04/06 00:28:26;;;;;;;56.97;32.80;;;7.40;83.20;;;;;;6246135;23;20120;-71
2021/04/06 00:30:55;;;;;;;64.57;32.95;;;7.40;83.20;;;;;;6247788;23;19992;-70
2021/04/06 00:33:25;;;;;;;60.75;32.22;;;7.40;82.40;;;;;;6247576;23;20087;-71
2021/04/06 00:35:53;;;;;;;64.90;34.67;;;7.30;83.70;;;;;;6247606;23;20000;-70
2021/04/06 00:38:21;;;;;;;59.15;33.40;;;7.20;82.40;;;;;;6247341;23;20415;-70
2021/04/06 00:40:50;;;;;;;74.00;38.85;;;7.00;83.90;;;;;;6247659;23;20015;-67
2021/04/06 00:43:18;;;;;;;70.50;39.00;;;7.10;84.30;;;;;;6247256;23;20325;-71
2021/04/06 00:45:46;;;;;;;67.10;37.13;;;7.20;84.30;;;;;;6245854;23;20082;-69
2021/04/06 00:48:22;;;;;;;67.15;37.45;;;7.10;84.10;;;;;;6247584;23;20039;-68
2021/04/06 00:51:10;;;;;;;61.42;36.25;;;7.10;87.30;;;;;;6247246;23;20071;-71
2021/04/06 00:54:00;;;;;;;64.57;35.00;;;6.90;89.60;;;;;;6247902;23;20389;-70
2021/04/06 00:56:38;;;;;;;73.97;34.80;;;6.90;90.20;;;;;;6247522;23;20298;-69
2021/04/06 00:59:10;;;;;;;65.95;33.38;;;6.90;88.00;;;;;;6247538;23;20437;-70
2021/04/06 01:01:37;;;;;;;;;;;6.90;87.90;;;;;;6247988;23;19993;-69
2021/04/06 01:04:25;;;;;;;84.68;39.22;;;6.90;87.60;;;;;;6245815;23;19906;-69
2021/04/06 01:07:08;;;;;;;90.43;44.90;;;6.90;86.60;;;;;;6244963;23;20374;-69
2021/04/06 01:09:42;;;;;;;93.65;49.38;;;6.80;86.80;;;;;;6247441;23;20004;-70
2021/04/06 01:12:10;;;;;;;101.75;46.42;;;6.80;88.20;;;;;;6247222;23;20004;-71
2021/04/06 01:14:42;;;;;;;81.18;42.50;;;6.80;88.20;;;;;;6245702;23;20009;-72
2021/04/06 01:17:09;;;;;;;;;;;6.80;88.80;;;;;;6247758;23;20026;-72
2021/04/06 01:19:36;;;;;;;69.28;35.13;;;6.80;90.10;;;;;;6245436;23;19934;-71
2021/04/06 01:22:08;;;;;;;73.80;36.85;;;6.80;89.10;;;;;;6247208;23;20004;-72
2021/04/06 01:24:35;;;;;;;86.88;42.83;;;6.80;88.50;;;;;;6245067;23;20019;-72
2021/04/06 01:27:02;;;;;;;92.43;43.55;;;6.80;88.50;;;;;;6247131;23;20028;-71
2021/04/06 01:29:28;;;;;;;71.38;34.55;;;6.90;87.60;;;;;;6245599;23;20000;-70
2021/04/06 01:31:56;;;;;;;67.75;34.13;;;6.80;88.00;;;;;;6245437;23;20011;-71
2021/04/06 01:34:22;;;;;;;77.30;37.75;;;6.90;87.00;;;;;;6245553;23;20001;-70
2021/04/06 01:36:52;;;;;;;83.00;38.55;;;6.80;87.80;;;;;;6247078;23;20142;-70
2021/04/06 01:39:29;;;;;;;81.22;41.00;;;6.80;87.90;;;;;;6245127;23;20004;-70
2021/04/06 01:42:02;;;;;;;72.38;37.28;;;6.70;91.20;;;;;;6247169;23;20007;-69
2021/04/06 01:44:29;;;;;;;62.42;33.80;;;6.70;90.80;;;;;;6245496;23;20154;-71
2021/04/06 01:46:55;;;;;;;56.05;29.55;;;6.70;90.80;;;;;;6246999;23;20032;-71
2021/04/06 01:49:22;;;;;;;50.88;27.95;;;6.70;91.50;;;;;;6245334;23;20417;-69
2021/04/06 01:51:52;;;;;;;55.08;28.58;;;6.70;92.10;;;;;;6245294;23;20020;-70
2021/04/06 01:54:19;;;;;;;56.03;31.55;;;6.70;92.50;;;;;;6245331;23;20008;-70
2021/04/06 01:56:57;;;;;;;61.75;33.53;;;6.70;92.60;;;;;;6246890;23;20417;-72
2021/04/06 01:59:33;;;;;;;59.78;30.33;;;6.60;93.50;;;;;;6245212;23;20032;-69
2021/04/06 02:02:01;;;;;;;60.80;30.52;;;6.60;93.40;;;;;;6246929;23;20394;-72
2021/04/06 02:04:29;;;;;;;63.75;28.13;;;6.50;92.50;;;;;;6245218;23;20000;-73
2021/04/06 02:06:57;;;;;;;63.60;30.55;;;6.60;92.30;;;;;;6247198;23;20010;-70
2021/04/06 02:09:23;;;;;;;78.80;32.00;;;6.60;92.60;;;;;;6245116;23;20099;-72
2021/04/06 02:11:49;;;;;;;65.70;29.25;;;6.70;92.20;;;;;;6246701;23;20008;-71
2021/04/06 02:14:20;;;;;;;50.00;27.60;;;6.70;92.40;;;;;;6246733;23;20306;-75
2021/04/06 02:16:55;;;;;;;49.38;25.27;;;6.70;93.10;;;;;;6245056;23;20011;-73
2021/04/06 02:19:21;;;;;;;58.28;30.02;;;6.60;93.70;;;;;;6246348;23;20004;-71
2021/04/06 02:21:55;;;;;;;61.92;30.08;;;6.60;94.30;;;;;;6246637;23;20000;-72
2021/04/06 02:24:34;;;;;;;51.25;26.23;;;6.60;94.40;;;;;;6246197;23;20091;-70
2021/04/06 02:27:03;;;;;;;65.45;32.65;;;6.60;94.90;;;;;;6244980;23;20071;-73
2021/04/06 02:29:29;;;;;;;86.25;38.28;;;6.50;95.20;;;;;;6246615;23;20079;-75
2021/04/06 02:31:57;;;;;;;53.92;32.72;;;6.50;94.40;;;;;;6246573;23;20011;-71
2021/04/06 02:34:36;;;;;;;56.15;31.23;;;6.50;95.30;;;;;;6246568;23;20000;-72
2021/04/06 02:37:03;;;;;;;50.35;27.50;;;6.40;95.50;;;;;;6244894;23;19996;-69
2021/04/06 02:39:29;;;;;;;45.45;26.63;;;6.50;95.60;;;;;;6244954;23;20001;-71
2021/04/06 02:41:55;;;;;;;57.25;31.45;;;6.50;96.60;;;;;;6246469;23;20365;-74
2021/04/06 02:44:21;;;;;;;63.83;36.47;;;6.60;96.30;;;;;;6246445;23;20000;-72
2021/04/06 02:46:50;;;;;;;73.90;36.38;;;6.50;95.10;;;;;;6246431;23;20004;-71
2021/04/06 02:49:17;;;;;;;66.47;34.60;;;6.50;94.40;;;;;;6246448;23;20090;-70
2021/04/06 02:51:43;;;;;;;62.85;34.97;;;6.40;93.80;;;;;;6246296;23;19996;-71
2021/04/06 02:54:09;;;;;;;58.15;34.67;;;6.20;94.00;;;;;;6244681;23;20004;-71
2021/04/06 02:56:36;;;;;;;54.85;30.90;;;6.10;94.80;;;;;;6246274;23;20058;-70
2021/04/06 02:59:17;;;;;;;52.53;30.98;;;6.10;97.20;;;;;;6246313;23;20000;-72
2021/04/06 03:01:45;;;;;;;55.45;33.33;;;6.00;96.20;;;;;;6244624;23;20050;-70
2021/04/06 03:04:27;;;;;;;66.03;33.03;;;6.00;96.70;;;;;;6244593;23;20001;-71
2021/04/06 03:06:57;;;;;;;57.63;30.48;;;6.00;96.50;;;;;;6246207;23;20007;-72
2021/04/06 03:09:26;;;;;;;49.20;28.85;;;6.00;97.00;;;;;;6246249;23;20011;-69
2021/04/06 03:11:54;;;;;;;50.75;30.17;;;6.00;96.70;;;;;;6244392;23;20016;-70
2021/04/06 03:14:22;;;;;;;42.83;24.42;;;6.00;97.10;;;;;;6244552;23;20046;-70
2021/04/06 03:16:50;;;;;;;46.88;27.05;;;6.10;96.70;;;;;;6244485;23;20182;-71
2021/04/06 03:19:17;;;;;;;46.03;27.60;;;6.20;97.70;;;;;;6244519;23;20004;-70
2021/04/06 03:22:35;;;;;;;42.85;23.60;;;6.20;96.00;;;;;;6245934;23;20061;-70
2021/04/06 03:25:01;;;;;;;39.33;24.00;;;6.20;95.80;;;;;;6246138;23;20016;-70
2021/04/06 03:27:29;;;;;;;37.35;23.42;;;6.20;96.50;;;;;;6245672;23;20032;-70
2021/04/06 03:29:58;;;;;;;83.05;51.28;;;6.20;96.40;;;;;;6246092;23;20024;-70
2021/04/06 03:32:24;;;;;;;155.52;91.35;;;6.10;96.40;;;;;;6244305;23;20066;-71
2021/04/06 03:34:54;;;;;;;152.52;92.05;;;6.20;97.60;;;;;;6244337;23;20001;-69
2021/04/06 03:37:21;;;;;;;192.90;100.60;;;6.10;95.60;;;;;;6245991;23;20003;-71
2021/04/06 03:39:48;;;;;;;128.35;69.32;;;6.20;95.80;;;;;;6246047;23;20000;-71
2021/04/06 03:42:22;;;;;;;99.03;51.38;;;6.30;96.30;;;;;;6245645;23;20004;-71
2021/04/06 03:44:48;;;;;;;44.40;26.95;;;6.30;95.70;;;;;;6245778;23;20000;-69
2021/04/06 03:47:14;;;;;;;46.53;28.73;;;6.40;94.70;;;;;;6244324;23;20413;-72
2021/04/06 03:49:49;;;;;;;46.53;28.75;;;6.50;94.80;;;;;;6245919;23;20420;-70
2021/04/06 03:52:15;;;;;;;48.28;27.08;;;6.60;93.80;;;;;;6245863;23;20007;-71
2021/04/06 03:54:47;;;;;;;42.67;22.20;;;6.60;93.30;;;;;;6245920;23;20011;-69
2021/04/06 03:57:22;;;;;;;;;;;6.70;91.60;;;;;;6244905;23;20003;-67
2021/04/06 03:59:49;;;;;;;117.97;70.18;;;6.70;92.50;;;;;;6243900;23;19906;-69
2021/04/06 04:02:15;;;;;;;93.20;46.55;;;6.70;92.50;;;;;;6245837;23;20004;-69
2021/04/06 04:04:41;;;;;;;65.70;34.80;;;6.60;93.80;;;;;;6245792;23;19997;-71
2021/04/06 04:07:07;;;;;;;52.45;29.35;;;6.60;94.90;;;;;;6243810;23;20087;-69
2021/04/06 04:09:34;;;;;;;47.92;25.40;;;6.50;95.60;;;;;;6244244;23;20321;-70
2021/04/06 04:12:00;;;;;;;40.22;24.42;;;6.70;95.40;;;;;;6245747;23;20405;-70
2021/04/06 04:14:26;;;;;;;39.58;24.42;;;6.70;96.00;;;;;;6244147;23;20001;-69
2021/04/06 04:16:55;;;;;;;40.92;22.88;;;6.80;95.50;;;;;;6245759;23;20000;-69
2021/04/06 04:19:21;;;;;;;47.65;22.80;;;6.80;94.90;;;;;;6245443;23;20066;-70
2021/04/06 04:21:47;;;;;;;39.65;21.20;;;6.80;95.30;;;;;;6245754;23;20433;-71
2021/04/06 04:24:13;;;;;;;30.23;19.45;;;6.70;95.10;;;;;;6243624;23;20016;-71
2021/04/06 04:26:39;;;;;;;33.50;18.15;;;6.60;95.50;;;;;;6245459;23;20074;-72
2021/04/06 04:29:05;;;;;;;29.65;17.48;;;6.60;96.40;;;;;;6244151;23;20008;-71
2021/04/06 04:31:31;;;;;;;32.90;18.38;;;6.70;96.40;;;;;;6244004;23;20429;-71
2021/04/06 04:33:57;;;;;;;37.67;20.63;;;6.60;96.80;;;;;;6245640;23;20097;-71
2021/04/06 04:36:23;;;;;;;36.38;21.55;;;6.60;96.50;;;;;;6245640;23;20079;-70
2021/04/06 04:38:49;;;;;;;34.38;20.50;;;6.70;97.60;;;;;;6245711;23;19997;-69
2021/04/06 04:41:14;;;;;;;35.00;20.30;;;6.70;97.40;;;;;;6245683;23;19997;-69
2021/04/06 04:43:41;;;;;;;30.67;20.55;;;6.70;97.00;;;;;;6245642;23;20083;-69
2021/04/06 04:46:07;;;;;;;35.58;20.70;;;6.80;96.70;;;;;;6244021;23;20091;-71
2021/04/06 04:48:33;;;;;;;33.10;20.73;;;6.70;96.30;;;;;;6243943;23;20023;-70
2021/04/06 04:50:59;;;;;;;42.78;21.90;;;6.70;96.00;;;;;;6243976;23;20007;-71
2021/04/06 04:53:27;;;;;;;30.45;20.25;;;6.80;96.00;;;;;;6245143;23;20011;-70
2021/04/06 04:55:53;;;;;;;34.65;21.67;;;6.70;95.40;;;;;;6245735;23;19997;-72
2021/04/06 04:58:19;;;;;;;61.15;27.88;;;6.70;95.70;;;;;;6247515;23;19996;-71
2021/04/06 05:00:45;;;;;;;65.55;30.77;;;6.70;95.40;;;;;;6247516;23;20413;-71
2021/04/06 05:03:11;;;;;;;58.60;29.65;;;6.70;95.30;;;;;;6245751;23;20059;-70
2021/04/06 05:05:36;;;;;;;50.60;27.27;;;6.70;95.20;;;;;;6247394;23;20083;-71
2021/04/06 05:08:03;;;;;;;37.00;22.55;;;6.70;95.60;;;;;;6247042;23;20007;-70
2021/04/06 05:10:28;;;;;;;51.47;30.75;;;6.70;95.30;;;;;;6247329;23;20000;-71
2021/04/06 05:12:54;;;;;;;60.78;34.45;;;6.70;96.50;;;;;;6245496;23;20012;-70
2021/04/06 05:15:20;;;;;;;120.22;55.72;;;6.60;96.70;;;;;;6245658;23;20587;-71
2021/04/06 05:17:46;;;;;;;51.70;28.77;;;6.60;97.20;;;;;;6247286;23;19992;-71
2021/04/06 05:20:13;;;;;;;51.88;28.33;;;6.60;96.50;;;;;;6247333;23;20000;-72
2021/04/06 05:22:39;;;;;;;54.85;30.23;;;6.50;95.40;;;;;;6245690;23;20008;-72
2021/04/06 05:25:06;;;;;;;61.65;31.45;;;6.40;96.30;;;;;;6246706;23;20332;-71
2021/04/06 05:27:32;;;;;;;59.78;33.22;;;6.40;97.00;;;;;;6246971;23;19996;-71
2021/04/06 05:29:58;;;;;;;71.18;36.28;;;6.30;98.20;;;;;;6247265;23;20440;-71
2021/04/06 05:32:24;;;;;;;67.50;34.05;;;6.40;95.30;;;;;;6245572;23;20066;-72
2021/04/06 05:34:50;;;;;;;51.00;27.35;;;6.50;92.20;;;;;;6247074;23;20000;-70
2021/04/06 05:37:16;;;;;;;40.55;21.13;;;6.70;89.80;;;;;;6245564;23;20000;-70
2021/04/06 05:39:41;;;;;;;38.50;20.10;;;6.80;83.80;;;;;;6246712;23;20413;-72
2021/04/06 05:42:10;;;;;;;37.03;18.77;;;7.00;81.20;;;;;;6245179;23;20062;-70
2021/04/06 05:44:40;;;;;;;28.63;15.82;;;7.10;79.90;;;;;;6246941;23;19996;-70
2021/04/06 05:47:18;;;;;;;28.50;14.52;;;7.30;77.10;;;;;;6246878;23;20000;-71
2021/04/06 05:49:44;;;;;;;31.15;18.02;;;7.40;75.60;;;;;;6246637;23;20000;-70
2021/04/06 05:52:10;;;;;;;36.75;17.88;;;7.60;76.40;;;;;;6245104;23;20008;-71
2021/04/06 05:54:36;;;;;;;28.70;16.08;;;7.60;76.60;;;;;;6246827;23;20004;-73
2021/04/06 05:57:02;;;;;;;86.25;39.85;;;7.80;76.80;;;;;;6246760;23;20491;-69
2021/04/06 05:59:28;;;;;;;62.75;28.35;;;8.00;83.50;;;;;;6245002;23;20038;-69
2021/04/06 06:01:54;;;;;;;50.00;29.02;;;8.50;88.60;;;;;;6245156;23;20020;-71
2021/04/06 06:04:20;;;;;;;25.38;9.95;;;8.60;89.50;;;;;;6245206;23;20020;-70
2021/04/06 06:06:46;;;;;;;17.80;4.38;;;8.60;88.20;;;;;;6246285;22;20000;-71
2021/04/06 06:09:13;;;;;;;22.67;9.45;;;8.50;86.80;;;;;;6244493;22;20007;-75
2021/04/06 06:11:57;;;;;;;35.72;17.88;;;8.50;92.20;;;;;;6245013;22;20484;-70
2021/04/06 06:14:35;;;;;;;17.95;9.77;;;8.40;88.10;;;;;;6243003;23;20012;-71
2021/04/06 06:17:16;;;;;;;13.75;5.18;;;8.60;88.30;;;;;;6246650;23;20006;-71
2021/04/06 06:19:47;;;;;;;18.00;7.70;;;8.50;89.20;;;;;;6246511;22;20405;-70
2021/04/06 06:22:16;;;;;;;71.10;7.78;;;8.50;88.30;;;;;;6244896;23;20042;-70
2021/04/06 06:24:46;;;;;;;34.45;6.18;;;8.50;90.20;;;;;;6244215;23;20453;-70
2021/04/06 06:30:33;;;;;;;18.60;4.68;;;8.70;87.50;;;;;;6256534;22;20337;-70
2021/04/06 06:33:35;;;;;;;34.80;5.03;;;8.70;82.80;;;;;;6244634;23;20073;-70
2021/04/06 06:36:05;;;;;;;25.88;5.03;;;8.70;83.90;;;;;;6244854;23;20000;-69
2021/04/06 06:38:33;;;;;;;8.80;2.40;;;8.70;82.70;;;;;;6244556;23;20050;-69
2021/04/06 06:41:19;;;;;;;7.25;2.67;;;8.60;78.80;;;;;;6246462;22;20503;-70
2021/04/06 06:43:56;;;;;;;12.55;3.45;;;8.60;78.60;;;;;;6245802;22;20007;-69
2021/04/06 06:46:30;;;;;;;5.75;2.20;;;8.60;78.70;;;;;;6245890;22;20126;-69
2021/04/06 06:49:04;;;;;;;7.75;1.75;;;8.60;80.20;;;;;;6246006;22;20368;-70
2021/04/06 06:51:32;;;;;;;5.53;1.45;;;8.80;78.80;;;;;;6246294;22;20107;-70
2021/04/06 06:53:59;;;;;;;5.60;2.75;;;8.80;77.70;;;;;;6244452;23;20036;-72
2021/04/06 06:56:41;;;;;;;20.70;3.42;;;8.90;77.00;;;;;;6246040;22;20007;-67
2021/04/06 06:59:09;;;;;;;15.18;4.97;;;9.70;85.80;;;;;;6246059;22;20008;-69
2021/04/06 07:01:38;;;;;;;12.93;5.65;;;10.40;84.10;;;;;;6243452;23;20001;-70
2021/04/06 07:04:14;;;;;;;12.82;3.30;;;11.00;82.00;;;;;;6245896;22;20066;-68
2021/04/06 07:06:42;;;;;;;13.05;5.70;;;11.40;72.90;;;;;;6246134;22;19992;-70
2021/04/06 07:09:28;;;;;;;11.68;4.00;;;11.20;71.20;;;;;;6245655;22;20030;-69
2021/04/06 07:12:00;;;;;;;17.52;5.38;;;11.50;71.40;;;;;;6246009;22;20000;-70
2021/04/06 07:14:27;;;;;;;4.45;3.35;;;11.80;71.00;;;;;;6245971;22;20006;-69
2021/04/06 07:16:54;;;;;;;8.35;3.50;;;11.80;65.40;;;;;;6244071;23;20004;-70
2021/04/06 07:19:21;;;;;;;6.20;2.90;;;11.90;66.90;;;;;;6245689;22;20309;-69
2021/04/06 07:21:48;;;;;;;8.55;3.15;;;12.10;64.50;;;;;;6245825;22;20267;-69
2021/04/06 07:24:22;;;;;;;34.05;19.63;;;12.50;65.70;;;;;;6245487;22;20008;-69
2021/04/06 07:26:48;;;;;;;11.45;8.00;;;12.40;63.20;;;;;;6244278;23;20011;-69
2021/04/06 07:29:15;;;;;;;16.60;7.47;;;12.00;60.80;;;;;;6246057;22;20000;-70
2021/04/06 07:31:42;;;;;;;7.80;4.32;;;11.80;61.40;;;;;;6245750;22;19992;-69
2021/04/06 07:34:09;;;;;;;9.23;2.50;;;12.10;62.30;;;;;;6245794;22;20005;-69
2021/04/06 07:36:35;;;;;;;4.90;2.38;;;12.50;59.60;;;;;;6245233;22;20364;-70
2021/04/06 07:39:06;;;;;;;12.82;5.43;;;12.40;59.30;;;;;;6243753;23;20004;-69
2021/04/06 07:41:34;;;;;;;46.30;10.87;;;12.40;58.70;;;;;;6244065;23;20001;-70
2021/04/06 07:44:03;;;;;;;82.72;35.63;;;12.20;57.00;;;;;;6245696;23;20058;-68
2021/04/06 07:46:34;;;;;;;22.95;8.88;;;11.50;57.60;;;;;;6245511;23;20039;-70
2021/04/06 07:49:09;;;;;;;22.38;6.53;;;11.20;59.70;;;;;;6244088;23;20057;-70
2021/04/06 07:52:10;;;;;;;29.45;6.82;;;10.90;59.70;;;;;;6244022;23;20001;-68
2021/04/06 07:54:40;;;;;;;28.10;11.13;;;10.80;59.80;;;;;;6224444;23;20070;-70
2021/04/06 07:57:06;;;;;;;28.70;8.13;;;11.10;62.30;;;;;;6245726;23;20000;-70
2021/04/06 07:59:34;;;;;;;16.75;9.13;;;12.20;63.30;;;;;;6244008;23;20318;-69
2021/04/06 08:02:01;;;;;;;14.75;6.32;;;11.60;57.80;;;;;;6245643;22;20075;-69
2021/04/06 08:04:39;;;;;;;17.83;6.07;;;11.80;57.20;;;;;;6245643;23;20008;-69
2021/04/06 08:07:23;;;;;;;12.15;4.45;;;11.30;56.50;;;;;;6243925;23;20000;-68
2021/04/06 08:10:19;;;;;;;10.50;3.58;;;11.80;57.90;;;;;;6244844;22;20059;-69
2021/04/06 08:12:46;;;;;;;9.07;2.85;;;11.80;57.00;;;;;;6222158;23;20008;-71
2021/04/06 08:15:19;;;;;;;9.65;2.85;;;11.20;53.70;;;;;;6245730;22;20003;-71
2021/04/06 08:17:45;;;;;;;3.47;2.42;;;10.80;54.10;;;;;;6245739;22;20004;-70
2021/04/06 08:20:36;;;;;;;16.23;8.50;;;10.60;53.80;;;;;;6245584;22;20287;-70
2021/04/06 08:23:05;;;;;;;16.48;9.40;;;10.80;55.70;;;;;;6245518;22;20004;-71
2021/04/06 08:25:31;;;;;;;17.65;7.30;;;10.50;55.30;;;;;;6245506;22;19996;-70
2021/04/06 08:28:23;;;;;;;17.95;6.82;;;10.70;57.30;;;;;;6243933;23;20008;-72
2021/04/06 08:30:49;;;;;;;20.75;5.00;;;10.80;55.10;;;;;;6247432;22;20049;-71
2021/04/06 08:33:14;;;;;;;28.20;4.60;;;11.70;56.30;;;;;;6245815;23;20063;-68
2021/04/06 08:35:49;;;;;;;41.95;5.43;;;11.30;54.10;;;;;;6247625;22;20063;-67
2021/04/06 08:38:24;;;;;;;18.10;6.93;;;11.90;56.60;;;;;;6247378;22;20014;-68
2021/04/06 08:41:10;;;;;;;14.98;4.80;;;11.40;53.50;;;;;;6245830;23;20031;-69
2021/04/06 08:43:46;;;;;;;11.52;5.35;;;11.10;56.10;;;;;;6247487;22;19996;-71
2021/04/06 08:46:24;;;;;;;10.45;5.40;;;10.90;56.50;;;;;;6247432;22;20019;-70
2021/04/06 08:48:52;;;;;;;12.48;7.03;;;10.40;55.90;;;;;;6247163;22;19993;-73
2021/04/06 08:51:33;;;;;;;33.55;14.10;;;9.90;57.70;;;;;;6247423;22;20007;-69
2021/04/06 08:54:01;;;;;;;53.92;23.83;;;10.40;59.00;;;;;;6247339;23;20138;-69
2021/04/06 08:56:36;;;;;;;81.43;30.55;;;9.90;57.20;;;;;;6245538;23;20104;-69
2021/04/06 08:59:31;;;;;;;56.17;23.75;;;10.30;58.30;;;;;;6245583;23;20429;-70
2021/04/06 09:02:02;;;;;;;54.33;18.65;;;10.30;56.40;;;;;;6247201;23;20023;-69
2021/04/06 09:04:31;;;;;;;98.50;43.30;;;10.70;57.10;;;;;;6247156;23;20028;-70
2021/04/06 09:06:57;;;;;;;70.15;29.60;;;10.70;54.90;;;;;;6245593;23;20003;-69
2021/04/06 09:09:32;;;;;;;27.30;11.63;;;11.30;56.30;;;;;;6246828;23;20317;-70
2021/04/06 09:12:00;;;;;;;15.75;6.40;;;11.70;55.70;;;;;;6245453;23;20053;-68
2021/04/06 09:14:30;;;;;;;12.85;5.00;;;12.10;55.40;;;;;;6247058;22;20481;-71
2021/04/06 09:16:56;;;;;;;12.52;4.32;;;12.20;52.60;;;;;;6247182;22;20004;-70
2021/04/06 09:19:24;;;;;;;15.68;8.77;;;12.30;52.90;;;;;;6247205;22;20405;-68
2021/04/06 09:21:54;;;;;;;13.38;6.90;;;12.30;50.10;;;;;;6247073;22;20007;-73
2021/04/06 09:24:21;;;;;;;4.40;3.17;;;;;;;;;;6246651;22;20324;-68
2021/04/06 09:26:51;;;;;;;8.52;4.30;;;10.90;52.00;;;;;;6247073;23;19992;-69
2021/04/06 09:29:26;;;;;;;5.82;3.90;;;10.80;56.20;;;;;;6247086;22;20256;-72
2021/04/06 09:32:05;;;;;;;4.85;2.80;;;10.40;53.70;;;;;;6245191;23;20004;-73
2021/04/06 09:34:39;;;;;;;7.57;3.13;;;10.40;54.30;;;;;;6246892;22;20010;-69
2021/04/06 09:37:06;;;;;;;8.63;3.70;;;10.20;53.80;;;;;;6246727;22;20023;-69
2021/04/06 09:39:33;;;;;;;14.80;9.07;;;9.40;53.90;;;;;;6246937;22;20000;-68
2021/04/06 09:42:00;;;;;;;6.80;3.10;;;9.00;55.10;;;;;;6246823;22;20000;-71
2021/04/06 09:44:29;;;;;;;3.83;2.70;;;8.70;55.70;;;;;;6244672;23;20004;-69
2021/04/06 09:47:02;;;;;;;4.15;2.10;;;8.70;57.20;;;;;;6246970;22;20028;-68
2021/04/06 09:49:34;;;;;;;2.97;2.00;;;8.70;57.40;;;;;;6246928;22;20031;-71
2021/04/06 09:52:04;;;;;;;28.40;14.00;;;8.60;58.00;;;;;;6246783;22;20009;-72
2021/04/06 09:54:33;;;;;;;34.60;17.30;;;8.40;58.60;;;;;;6246625;23;20317;-71
2021/04/06 09:57:01;;;;;;;46.42;22.10;;;8.10;59.50;;;;;;6245161;23;20004;-71
2021/04/06 09:59:28;;;;;;;45.00;21.38;;;7.90;61.00;;;;;;6246740;23;20010;-71
2021/04/06 10:01:58;;;;;;;46.58;22.30;;;8.00;60.40;;;;;;6246819;23;20439;-70
2021/04/06 10:04:39;;;;;;;23.55;11.05;;;7.90;60.10;;;;;;6246232;23;20000;-73
2021/04/06 10:07:08;;;;;;;34.30;16.40;;;7.90;60.20;;;;;;6246031;23;20091;-72
2021/04/06 10:09:36;;;;;;;19.20;7.72;;;8.00;60.30;;;;;;6246560;23;20023;-70
2021/04/06 10:12:02;;;;;;;7.82;3.13;;;8.00;59.80;;;;;;6244649;23;20371;-72
2021/04/06 10:14:29;;;;;;;11.05;3.50;;;8.00;59.10;;;;;;6244811;23;20033;-71
2021/04/06 10:16:57;;;;;;;8.10;3.20;;;8.10;59.20;;;;;;6244729;23;20460;-70
2021/04/06 10:19:29;;;;;;;7.60;4.03;;;8.60;59.40;;;;;;6244970;23;20004;-75
2021/04/06 10:22:03;;;;;;;;;;;8.00;60.50;;;;;;6247042;22;20000;-69
2021/04/06 10:24:31;;;;;;;23.65;11.50;;;7.80;61.60;;;;;;6246410;22;19934;-71
2021/04/06 10:27:31;;;;;;;14.35;7.50;;;7.50;62.50;;;;;;6244683;23;20000;-71
2021/04/06 10:30:04;;;;;;;11.80;3.72;;;7.30;61.90;;;;;;6233629;23;20014;-70
2021/04/06 10:32:33;;;;;;;9.75;3.58;;;7.30;63.10;;;;;;6246239;22;20066;-70
2021/04/06 10:35:04;;;;;;;9.35;3.63;;;7.50;64.50;;;;;;6246435;22;20062;-70
2021/04/06 10:37:54;;;;;;;8.77;4.93;;;7.50;64.20;;;;;;6246390;22;19996;-71
2021/04/06 10:40:42;;;;;;;13.77;4.07;;;7.40;64.70;;;;;;6246309;22;20000;-71
2021/04/06 10:43:14;;;;;;;6.85;3.20;;;7.30;65.20;;;;;;6244468;23;20016;-71
2021/04/06 10:45:52;;;;;;;9.27;5.70;;;7.30;64.40;;;;;;6246241;22;20003;-68
2021/04/06 10:48:22;;;;;;;21.63;10.25;;;7.50;63.40;;;;;;6245693;22;20526;-72
2021/04/06 10:50:53;;;;;;;17.55;9.20;;;7.60;63.80;;;;;;6244178;23;20018;-72
2021/04/06 10:53:30;;;;;;;12.68;4.80;;;7.60;64.40;;;;;;6244262;23;20012;-69
2021/04/06 10:56:02;;;;;;;9.68;3.80;;;7.40;63.50;;;;;;6246269;22;19992;-69
2021/04/06 10:58:30;;;;;;;;;;;7.20;64.50;;;;;;6246083;22;20004;-69
2021/04/06 11:01:18;;;;;;;12.48;4.72;;;7.10;64.90;;;;;;6244198;23;19899;-71
2021/04/06 11:03:57;;;;;;;16.60;6.15;;;7.10;65.60;;;;;;6245941;22;20000;-71
2021/04/06 11:06:33;;;;;;;20.67;8.75;;;7.20;67.00;;;;;;6246162;22;20050;-70
2021/04/06 11:09:15;;;;;;;18.60;7.22;;;7.20;66.00;;;;;;6244452;23;20005;-71
2021/04/06 11:11:42;;;;;;;;;;;7.10;68.50;;;;;;6245032;23;20083;-70
2021/04/06 11:14:10;;;;;;;6.38;3.33;;;7.00;67.90;;;;;;6245910;22;19911;-70
2021/04/06 11:16:38;;;;;;;29.17;11.50;;;6.90;67.80;;;;;;6245584;22;20004;-69
2021/04/06 11:19:16;;;;;;;14.70;7.38;;;6.80;69.20;;;;;;6245467;23;20330;-70
2021/04/06 11:21:45;;;;;;;9.32;3.80;;;6.70;68.70;;;;;;6246072;22;20435;-70
2021/04/06 11:24:11;;;;;;;12.50;6.88;;;6.60;70.30;;;;;;6245781;22;20062;-71
2021/04/06 11:26:37;;;;;;;28.88;14.45;;;6.40;70.30;;;;;;6245860;22;20007;-69
2021/04/06 11:29:06;;;;;;;11.32;5.45;;;6.50;71.50;;;;;;6245504;23;20000;-71
2021/04/06 11:31:34;;;;;;;5.35;3.60;;;6.60;71.90;;;;;;6244320;23;20004;-70
2021/04/06 11:34:00;;;;;;;11.38;5.22;;;6.60;72.00;;;;;;6245805;22;20333;-70
2021/04/06 11:36:26;;;;;;;12.35;4.15;;;6.60;73.50;;;;;;6245762;22;20429;-72
2021/04/06 11:38:51;;;;;;;15.70;6.30;;;6.50;74.50;;;;;;6245393;22;20004;-69
2021/04/06 11:41:19;;;;;;;8.25;3.50;;;6.60;75.00;;;;;;6245878;22;19996;-70
2021/04/06 11:43:46;;;;;;;12.52;4.93;;;6.60;74.00;;;;;;6244286;23;20313;-69
2021/04/06 11:46:13;;;;;;;9.98;3.40;;;6.40;76.50;;;;;;6246152;22;20000;-70
2021/04/06 11:48:39;;;;;;;12.02;4.03;;;6.30;76.80;;;;;;6244300;23;20069;-70
2021/04/06 11:51:06;;;;;;;13.05;4.60;;;6.30;78.80;;;;;;6245435;22;20000;-71
2021/04/06 11:53:32;;;;;;;13.50;4.30;;;6.10;80.60;;;;;;6245819;22;20015;-72
2021/04/06 11:55:58;;;;;;;10.35;4.28;;;5.90;82.60;;;;;;6243823;23;20005;-72
2021/04/06 11:58:24;;;;;;;14.90;6.40;;;5.80;85.70;;;;;;6244062;23;20004;-71
2021/04/06 12:00:50;;;;;;;10.32;3.55;;;5.90;86.50;;;;;;6245827;22;20023;-70
2021/04/06 12:03:16;;;;;;;20.60;7.22;;;5.80;84.50;;;;;;6244192;23;20008;-71
2021/04/06 12:05:43;;;;;;;15.73;7.00;;;5.80;85.30;;;;;;6247668;22;20003;-71
2021/04/06 12:08:10;;;;;;;9.70;4.90;;;5.80;85.80;;;;;;6246259;23;20004;-68
2021/04/06 12:10:36;;;;;;;17.92;7.50;;;5.80;84.60;;;;;;6247582;22;20001;-70
2021/04/06 12:13:03;;;;;;;15.85;7.50;;;5.80;85.30;;;;;;6247693;22;20008;-71
2021/04/06 12:15:28;;;;;;;5.90;3.25;;;5.80;84.40;;;;;;6247535;22;20368;-71
2021/04/06 12:17:55;;;;;;;13.30;6.22;;;5.80;84.20;;;;;;6247660;22;20001;-71
2021/04/06 12:20:21;;;;;;;19.67;9.48;;;5.70;84.50;;;;;;6247820;22;20425;-71
2021/04/06 12:22:47;;;;;;;40.90;19.52;;;5.70;84.50;;;;;;6246095;23;20004;-71
2021/04/06 12:25:14;;;;;;;9.70;5.00;;;5.80;86.80;;;;;;6245479;23;20026;-71
2021/04/06 12:27:40;;;;;;;30.65;14.95;;;5.50;88.50;;;;;;6246107;23;20000;-74
2021/04/06 12:30:07;;;;;;;18.40;8.55;;;5.60;90.70;;;;;;6247816;23;20000;-70
2021/04/06 12:32:33;;;;;;;36.03;20.05;;;5.70;90.80;;;;;;6245883;23;20437;-72
2021/04/06 12:34:59;;;;;;;10.50;5.78;;;5.60;92.10;;;;;;6247325;23;20004;-70
2021/04/06 12:37:26;;;;;;;23.83;14.88;;;5.70;91.80;;;;;;6247364;22;20325;-72
2021/04/06 12:39:52;;;;;;;12.55;6.65;;;5.70;91.50;;;;;;6247317;23;19992;-72
2021/04/06 12:42:18;;;;;;;8.20;3.97;;;5.70;92.40;;;;;;6247541;22;20010;-71
2021/04/06 12:44:44;;;;;;;6.72;3.80;;;5.60;92.20;;;;;;6246010;23;20054;-72
2021/04/06 12:47:10;;;;;;;7.55;4.88;;;5.60;91.90;;;;;;6247620;22;20004;-74
2021/04/06 12:49:36;;;;;;;10.52;6.30;;;5.40;94.00;;;;;;6245983;23;20006;-71
2021/04/06 12:52:02;;;;;;;15.73;5.53;;;5.40;95.40;;;;;;6247148;22;20050;-70
2021/04/06 12:54:28;;;;;;;11.02;5.90;;;5.40;95.60;;;;;;6247567;22;20470;-72
2021/04/06 12:56:54;;;;;;;16.10;7.63;;;5.20;96.20;;;;;;6247567;22;19992;-71
2021/04/06 12:59:20;;;;;;;15.73;6.93;;;5.10;96.20;;;;;;6247183;22;19992;-71
2021/04/06 13:01:45;;;;;;;7.72;4.75;;;5.20;96.50;;;;;;6245804;23;20375;-70